Aérodrome :
LOGIN :

S'inscrire | Disclaimer

   EN    FR    IT 

 










Légende :    VFR   VFR Marginal   IFR   IFR Intensif   IFR Très Intensif
Visi : 
Plafond : 
>= 8 km
>= 3000ft
5 à 8 km
1000 à 3000 ft
1500m à 5 km
500 à 1000 ft
800 à 1500m
200 à 500 ft
< 800m
< 200 ft
Symboles :   Orages  Brouillard  Fortes neiges  Fortes précipitations  Vent > 20 kt
SIGMETs :   Divers  Orages  Givrage  Turbulence  Onde Orograph.  Cendres Volcan.






- Altitude de l'aérodrome : 17 ft
- Code IATA : GRQ


EHGG - Groningen Eelde

DERNIER METAR :
  • 090925Z AUTO 17008KT 9999 NCD 01/00 Q1002 BECMG BKN007

METARs EXPIRÉS :
  • 090855Z AUTO 16006KT 120V190 8000 NCD 01/M00 Q1002 NOSIG
  • 090825Z AUTO 14006KT 8000 NCD 00/M00 Q1002 NOSIG
  • 090755Z AUTO 15006KT 110V180 8000 NCD 00/M00 Q1002 NOSIG
  • 090725Z AUTO 15006KT 120V200 8000 NCD 00/M01 Q1001 TEMPO 7000
  • 090655Z AUTO 16006KT 130V190 8000 NCD 00/M00 Q1001 TEMPO 7000

TAF TAF EHGG
Valide du 09 à 06h jusqu'au 10 à 12h UTC


090512Z 0906/1012 17008KT CAVOK
PROB30 0906/0912 4000 BR BKN004
BECMG 0912/0915 BKN008
PROB40
TEMPO 0915/0924 4000 DZRA
PROB30 0918/1012 4000 BR BKN004
BECMG 1006/1009 NSC



MET'MAP, la Météo Aéronautique d'un coup d'oeil ! - Copyright ORBIFLY Décembre 2007 - Disclaimer

ORBIFLY MET'MAP TEAM :

Programmation & Développement : Alexandra Zaïnal
Sur une idée originale de : Baudouin d'Aumeries
Assistance à la programmation : Marc-Olivier Méhu
Soutien technique & logistique : Manuel Goepfert

Contact : metmap@orbifly.com




SOURCES & CREDITS :

   NOAA